Oakland, Arkansas
Current Conditions -  °F | °C
As of 5:53 AM on Thursday 29 Jan 2015 (Local Time) from KBPK Reporting Station
Clear Clear  
Wind Chill: 55°   Ceiling: Unl
Heat Index: 55°   Visibility: 10mi
Dew Point: 37°   Wind: 9mph
Humidity: 51%   Direction: 320°NW
Pressure: 30"   Gusts: 21mph
Location:  36.46°N, 92.57°W
Report Text: KBPK 291153Z AUTO 32008G18KT 10SM CLR 13/03 A3000 RMK AO2 SLP155 T01280028 10150 20122 53026
Loading
Personal Weather Stations






























Interactive Weather Map New forecast layout! Learn more

10-Day Weather Forecast

Advertisements
Track Severe Weather on mobile